sensor_id;sensor_type;location;lat;lon;timestamp;temperature;humidity
66094;DHT22;52876;49.394;10.892;2023-02-15T00:12:01;0.10;99.90
66094;DHT22;52876;49.394;10.892;2023-02-15T00:19:20;0.00;99.90
66094;DHT22;52876;49.394;10.892;2023-02-15T00:21:48;0.20;99.90
66094;DHT22;52876;49.394;10.892;2023-02-15T00:24:15;0.20;99.90
66094;DHT22;52876;49.394;10.892;2023-02-15T00:26:43;0.30;99.90
66094;DHT22;52876;49.394;10.892;2023-02-15T00:29:12;0.50;99.90
66094;DHT22;52876;49.394;10.892;2023-02-15T00:34:10;0.30;99.90
66094;DHT22;52876;49.394;10.892;2023-02-15T00:39:03;0.10;99.90
66094;DHT22;52876;49.394;10.892;2023-02-15T00:46:22;-0.20;99.90
66094;DHT22;52876;49.394;10.892;2023-02-15T01:01:03;0.60;99.90
66094;DHT22;52876;49.394;10.892;2023-02-15T01:03:31;0.60;99.90
66094;DHT22;52876;49.394;10.892;2023-02-15T01:20:39;0.60;99.90
66094;DHT22;52876;49.394;10.892;2023-02-15T01:23:06;0.90;99.90
66094;DHT22;52876;49.394;10.892;2023-02-15T01:25:33;0.30;99.90
66094;DHT22;52876;49.394;10.892;2023-02-15T01:30:26;0.30;99.90
66094;DHT22;52876;49.394;10.892;2023-02-15T01:37:49;-0.10;99.90
66094;DHT22;52876;49.394;10.892;2023-02-15T01:40:16;0.10;99.90
66094;DHT22;52876;49.394;10.892;2023-02-15T01:42:44;0.20;99.90
66094;DHT22;52876;49.394;10.892;2023-02-15T01:45:19;0.10;99.90
66094;DHT22;52876;49.394;10.892;2023-02-15T01:47:51;0.00;99.90
66094;DHT22;52876;49.394;10.892;2023-02-15T01:50:20;-0.20;99.90
66094;DHT22;52876;49.394;10.892;2023-02-15T01:52:53;-0.30;99.90
66094;DHT22;52876;49.394;10.892;2023-02-15T01:55:21;1.60;99.90
66094;DHT22;52876;49.394;10.892;2023-02-15T01:57:49;-0.30;99.90
66094;DHT22;52876;49.394;10.892;2023-02-15T02:00:17;0.10;99.90
66094;DHT22;52876;49.394;10.892;2023-02-15T02:02:47;0.00;99.90
66094;DHT22;52876;49.394;10.892;2023-02-15T02:07:44;-0.40;99.90
66094;DHT22;52876;49.394;10.892;2023-02-15T02:10:15;-0.40;99.90
66094;DHT22;52876;49.394;10.892;2023-02-15T02:12:45;-0.40;99.90
66094;DHT22;52876;49.394;10.892;2023-02-15T02:15:12;-0.30;99.90
66094;DHT22;52876;49.394;10.892;2023-02-15T02:17:49;-0.20;99.90
66094;DHT22;52876;49.394;10.892;2023-02-15T02:23:29;-0.20;99.90
66094;DHT22;52876;49.394;10.892;2023-02-15T02:26:25;-0.10;99.90
66094;DHT22;52876;49.394;10.892;2023-02-15T02:29:17;-0.20;99.90
66094;DHT22;52876;49.394;10.892;2023-02-15T02:32:18;-0.30;99.90
66094;DHT22;52876;49.394;10.892;2023-02-15T02:34:54;-0.30;99.90
66094;DHT22;52876;49.394;10.892;2023-02-15T02:37:27;-0.20;99.90
66094;DHT22;52876;49.394;10.892;2023-02-15T02:39:56;-0.20;99.90
66094;DHT22;52876;49.394;10.892;2023-02-15T02:42:31;-0.20;99.90
66094;DHT22;52876;49.394;10.892;2023-02-15T02:45:03;-0.20;99.90
66094;DHT22;52876;49.394;10.892;2023-02-15T02:47:35;-0.10;99.90
66094;DHT22;52876;49.394;10.892;2023-02-15T02:50:06;0.00;99.90
66094;DHT22;52876;49.394;10.892;2023-02-15T02:52:37;0.20;99.90
66094;DHT22;52876;49.394;10.892;2023-02-15T02:55:04;0.00;99.90
66094;DHT22;52876;49.394;10.892;2023-02-15T02:57:32;0.10;99.90
66094;DHT22;52876;49.394;10.892;2023-02-15T03:00:00;0.10;99.90
66094;DHT22;52876;49.394;10.892;2023-02-15T03:02:32;0.10;99.90
66094;DHT22;52876;49.394;10.892;2023-02-15T03:05:02;0.00;99.90
66094;DHT22;52876;49.394;10.892;2023-02-15T03:07:33;0.00;99.90
66094;DHT22;52876;49.394;10.892;2023-02-15T03:10:02;-0.30;99.90
66094;DHT22;52876;49.394;10.892;2023-02-15T03:12:33;0.00;99.90
66094;DHT22;52876;49.394;10.892;2023-02-15T03:15:02;-0.10;99.90
66094;DHT22;52876;49.394;10.892;2023-02-15T03:17:32;-0.30;99.90
66094;DHT22;52876;49.394;10.892;2023-02-15T03:20:03;-0.40;99.90
66094;DHT22;52876;49.394;10.892;2023-02-15T03:22:35;-0.50;99.90
66094;DHT22;52876;49.394;10.892;2023-02-15T03:25:06;-0.60;99.90
66094;DHT22;52876;49.394;10.892;2023-02-15T03:27:39;-0.50;99.90
66094;DHT22;52876;49.394;10.892;2023-02-15T03:30:07;-0.50;99.90
66094;DHT22;52876;49.394;10.892;2023-02-15T03:32:37;-0.60;99.90
66094;DHT22;52876;49.394;10.892;2023-02-15T03:35:05;-0.50;99.90
66094;DHT22;52876;49.394;10.892;2023-02-15T03:37:37;-0.60;99.90
66094;DHT22;52876;49.394;10.892;2023-02-15T03:40:09;-0.90;99.90
66094;DHT22;52876;49.394;10.892;2023-02-15T03:42:38;-1.00;99.90
66094;DHT22;52876;49.394;10.892;2023-02-15T04:12:09;-0.30;99.90
66094;DHT22;52876;49.394;10.892;2023-02-15T04:17:05;-0.50;99.90
66094;DHT22;52876;49.394;10.892;2023-02-15T04:26:52;-0.70;99.90
66094;DHT22;52876;49.394;10.892;2023-02-15T04:29:19;-0.90;99.90
66094;DHT22;52876;49.394;10.892;2023-02-15T04:39:06;-0.60;99.90
66094;DHT22;52876;49.394;10.892;2023-02-15T04:46:28;-0.70;99.90
66094;DHT22;52876;49.394;10.892;2023-02-15T04:51:20;-0.50;99.90
66094;DHT22;52876;49.394;10.892;2023-02-15T05:03:31;-0.90;99.90
66094;DHT22;52876;49.394;10.892;2023-02-15T05:15:47;-0.60;99.90
66094;DHT22;52876;49.394;10.892;2023-02-15T05:20:42;-0.70;99.90
66094;DHT22;52876;49.394;10.892;2023-02-15T05:37:48;-0.80;99.90
66094;DHT22;52876;49.394;10.892;2023-02-15T05:54:56;-0.50;99.90
66094;DHT22;52876;49.394;10.892;2023-02-15T06:12:05;-0.80;99.90
66094;DHT22;52876;49.394;10.892;2023-02-15T06:21:50;-0.80;99.90
66094;DHT22;52876;49.394;10.892;2023-02-15T06:29:11;-0.60;99.90
66094;DHT22;52876;49.394;10.892;2023-02-15T06:36:30;0.90;99.90
66094;DHT22;52876;49.394;10.892;2023-02-15T06:38:56;-0.80;99.90
66094;DHT22;52876;49.394;10.892;2023-02-15T06:41:23;-0.90;99.90
66094;DHT22;52876;49.394;10.892;2023-02-15T06:43:49;-1.00;99.90
66094;DHT22;52876;49.394;10.892;2023-02-15T06:46:17;-1.20;99.90
66094;DHT22;52876;49.394;10.892;2023-02-15T06:56:06;-1.40;99.90
66094;DHT22;52876;49.394;10.892;2023-02-15T07:03:26;-1.10;99.90
66094;DHT22;52876;49.394;10.892;2023-02-15T07:05:54;-1.20;99.90
66094;DHT22;52876;49.394;10.892;2023-02-15T07:10:48;-1.10;99.90
66094;DHT22;52876;49.394;10.892;2023-02-15T07:20:37;-1.00;99.90
66094;DHT22;52876;49.394;10.892;2023-02-15T07:23:04;-1.10;99.90
66094;DHT22;52876;49.394;10.892;2023-02-15T07:27:56;-1.00;99.90
66094;DHT22;52876;49.394;10.892;2023-02-15T07:37:44;-0.10;99.90
66094;DHT22;52876;49.394;10.892;2023-02-15T07:45:04;-0.60;99.90
66094;DHT22;52876;49.394;10.892;2023-02-15T07:54:52;-0.70;99.90
66094;DHT22;52876;49.394;10.892;2023-02-15T08:12:02;-0.50;99.90
66094;DHT22;52876;49.394;10.892;2023-02-15T08:14:28;-0.40;99.90
66094;DHT22;52876;49.394;10.892;2023-02-15T08:16:58;-0.60;99.90
66094;DHT22;52876;49.394;10.892;2023-02-15T08:19:25;-0.60;99.90
66094;DHT22;52876;49.394;10.892;2023-02-15T08:21:54;-0.50;99.90
66094;DHT22;52876;49.394;10.892;2023-02-15T08:24:22;-0.40;99.90
66094;DHT22;52876;49.394;10.892;2023-02-15T08:26:48;-0.60;99.90
66094;DHT22;52876;49.394;10.892;2023-02-15T08:29:17;-0.70;99.90
66094;DHT22;52876;49.394;10.892;2023-02-15T08:31:43;-0.60;99.90
66094;DHT22;52876;49.394;10.892;2023-02-15T08:34:10;-0.60;99.90
66094;DHT22;52876;49.394;10.892;2023-02-15T08:39:05;-0.40;99.90
66094;DHT22;52876;49.394;10.892;2023-02-15T08:41:32;-0.60;99.90
66094;DHT22;52876;49.394;10.892;2023-02-15T08:43:59;-0.80;99.90
66094;DHT22;52876;49.394;10.892;2023-02-15T08:46:29;-0.60;99.90
66094;DHT22;52876;49.394;10.892;2023-02-15T08:51:25;-0.50;99.90
66094;DHT22;52876;49.394;10.892;2023-02-15T08:53:54;-0.40;99.90
66094;DHT22;52876;49.394;10.892;2023-02-15T08:56:23;-0.10;99.90
66094;DHT22;52876;49.394;10.892;2023-02-15T08:58:49;0.00;99.90
66094;DHT22;52876;49.394;10.892;2023-02-15T09:01:19;0.00;99.90
66094;DHT22;52876;49.394;10.892;2023-02-15T09:03:47;-0.10;99.90
66094;DHT22;52876;49.394;10.892;2023-02-15T09:08:41;0.50;99.90
66094;DHT22;52876;49.394;10.892;2023-02-15T09:11:10;0.40;99.90
66094;DHT22;52876;49.394;10.892;2023-02-15T09:13:37;0.50;99.90
66094;DHT22;52876;49.394;10.892;2023-02-15T09:16:06;0.40;99.90
66094;DHT22;52876;49.394;10.892;2023-02-15T09:18:34;0.40;99.90
66094;DHT22;52876;49.394;10.892;2023-02-15T09:21:07;0.70;99.90
66094;DHT22;52876;49.394;10.892;2023-02-15T09:26:03;1.00;99.90
66094;DHT22;52876;49.394;10.892;2023-02-15T09:38:16;1.50;99.90
66094;DHT22;52876;49.394;10.892;2023-02-15T09:40:53;1.40;99.90
66094;DHT22;52876;49.394;10.892;2023-02-15T09:43:30;1.50;99.90
66094;DHT22;52876;49.394;10.892;2023-02-15T09:46:12;1.50;99.90
66094;DHT22;52876;49.394;10.892;2023-02-15T09:48:42;1.20;99.90
66094;DHT22;52876;49.394;10.892;2023-02-15T09:51:36;1.00;99.90
66094;DHT22;52876;49.394;10.892;2023-02-15T09:54:18;0.90;99.90
66094;DHT22;52876;49.394;10.892;2023-02-15T09:56:51;0.80;99.90
66094;DHT22;52876;49.394;10.892;2023-02-15T09:59:23;0.80;99.90
66094;DHT22;52876;49.394;10.892;2023-02-15T10:02:02;1.10;99.90
66094;DHT22;52876;49.394;10.892;2023-02-15T10:04:47;1.40;99.90
66094;DHT22;52876;49.394;10.892;2023-02-15T10:07:26;1.40;99.90
66094;DHT22;52876;49.394;10.892;2023-02-15T10:10:03;1.40;99.90
66094;DHT22;52876;49.394;10.892;2023-02-15T10:12:43;1.60;99.90
66094;DHT22;52876;49.394;10.892;2023-02-15T10:15:24;1.50;99.90
66094;DHT22;52876;49.394;10.892;2023-02-15T10:18:17;1.30;99.90
66094;DHT22;52876;49.394;10.892;2023-02-15T10:20:55;1.10;99.90
66094;DHT22;52876;49.394;10.892;2023-02-15T10:23:38;1.50;99.90
66094;DHT22;52876;49.394;10.892;2023-02-15T10:26:16;1.40;99.90
66094;DHT22;52876;49.394;10.892;2023-02-15T10:28:46;1.50;99.90
66094;DHT22;52876;49.394;10.892;2023-02-15T10:31:22;1.00;99.90
66094;DHT22;52876;49.394;10.892;2023-02-15T10:33:52;1.00;99.90
66094;DHT22;52876;49.394;10.892;2023-02-15T10:36:32;1.00;99.90
66094;DHT22;52876;49.394;10.892;2023-02-15T10:39:05;0.70;99.90
66094;DHT22;52876;49.394;10.892;2023-02-15T10:41:40;0.60;99.90
66094;DHT22;52876;49.394;10.892;2023-02-15T10:44:17;0.60;99.90
66094;DHT22;52876;49.394;10.892;2023-02-15T10:47:01;0.60;99.90
66094;DHT22;52876;49.394;10.892;2023-02-15T10:49:39;0.70;99.90
66094;DHT22;52876;49.394;10.892;2023-02-15T10:52:17;0.80;99.90
66094;DHT22;52876;49.394;10.892;2023-02-15T10:54:50;0.90;99.90
66094;DHT22;52876;49.394;10.892;2023-02-15T10:57:27;1.20;99.90
66094;DHT22;52876;49.394;10.892;2023-02-15T11:00:05;1.50;99.90
66094;DHT22;52876;49.394;10.892;2023-02-15T11:02:44;1.80;99.90
66094;DHT22;52876;49.394;10.892;2023-02-15T11:05:31;1.80;99.90
66094;DHT22;52876;49.394;10.892;2023-02-15T11:08:03;1.80;99.90
66094;DHT22;52876;49.394;10.892;2023-02-15T11:10:36;1.90;99.90
66094;DHT22;52876;49.394;10.892;2023-02-15T11:13:09;1.80;99.90
66094;DHT22;52876;49.394;10.892;2023-02-15T11:15:39;1.70;99.90
66094;DHT22;52876;49.394;10.892;2023-02-15T11:18:12;2.00;99.90
66094;DHT22;52876;49.394;10.892;2023-02-15T11:20:45;1.90;99.90
66094;DHT22;52876;49.394;10.892;2023-02-15T11:23:15;2.00;99.90
66094;DHT22;52876;49.394;10.892;2023-02-15T11:25:44;1.90;99.90
66094;DHT22;52876;49.394;10.892;2023-02-15T11:28:18;1.80;99.90
66094;DHT22;52876;49.394;10.892;2023-02-15T11:30:50;1.70;99.90
66094;DHT22;52876;49.394;10.892;2023-02-15T11:33:19;1.90;99.90
66094;DHT22;52876;49.394;10.892;2023-02-15T11:35:50;2.00;99.90
66094;DHT22;52876;49.394;10.892;2023-02-15T11:43:19;2.50;99.90
66094;DHT22;52876;49.394;10.892;2023-02-15T11:48:13;2.30;99.90
66094;DHT22;52876;49.394;10.892;2023-02-15T11:50:44;2.40;99.90
66094;DHT22;52876;49.394;10.892;2023-02-15T11:53:12;2.10;99.90
66094;DHT22;52876;49.394;10.892;2023-02-15T11:55:42;2.60;99.90
66094;DHT22;52876;49.394;10.892;2023-02-15T11:58:21;2.70;99.90
66094;DHT22;52876;49.394;10.892;2023-02-15T12:00:51;2.70;99.90
66094;DHT22;52876;49.394;10.892;2023-02-15T12:03:22;2.80;99.90
66094;DHT22;52876;49.394;10.892;2023-02-15T12:05:53;2.70;99.90
66094;DHT22;52876;49.394;10.892;2023-02-15T12:11:03;2.80;99.90
66094;DHT22;52876;49.394;10.892;2023-02-15T12:13:32;2.90;99.90
66094;DHT22;52876;49.394;10.892;2023-02-15T12:16:04;3.00;99.90
66094;DHT22;52876;49.394;10.892;2023-02-15T12:18:35;3.30;99.90
66094;DHT22;52876;49.394;10.892;2023-02-15T12:21:05;3.00;99.90
66094;DHT22;52876;49.394;10.892;2023-02-15T12:23:32;3.20;99.90
66094;DHT22;52876;49.394;10.892;2023-02-15T12:25:58;3.60;99.90
66094;DHT22;52876;49.394;10.892;2023-02-15T12:28:26;3.70;99.90
66094;DHT22;52876;49.394;10.892;2023-02-15T12:30:57;4.10;99.90
66094;DHT22;52876;49.394;10.892;2023-02-15T12:33:27;4.30;99.90
66094;DHT22;52876;49.394;10.892;2023-02-15T12:36:00;4.40;99.90
66094;DHT22;52876;49.394;10.892;2023-02-15T12:40:58;4.90;99.90
66094;DHT22;52876;49.394;10.892;2023-02-15T12:43:29;4.70;99.90
66094;DHT22;52876;49.394;10.892;2023-02-15T12:49:05;4.70;99.90
66094;DHT22;52876;49.394;10.892;2023-02-15T12:56:26;4.90;99.90
66094;DHT22;52876;49.394;10.892;2023-02-15T12:59:04;4.50;99.90
66094;DHT22;52876;49.394;10.892;2023-02-15T13:01:32;5.20;99.90
66094;DHT22;52876;49.394;10.892;2023-02-15T13:04:01;5.00;99.90
66094;DHT22;52876;49.394;10.892;2023-02-15T13:06:28;5.30;99.90
66094;DHT22;52876;49.394;10.892;2023-02-15T13:16:24;7.60;99.90
66094;DHT22;52876;49.394;10.892;2023-02-15T13:18:54;7.30;99.90
66094;DHT22;52876;49.394;10.892;2023-02-15T13:21:24;7.70;99.90
66094;DHT22;52876;49.394;10.892;2023-02-15T13:23:55;8.10;99.90
66094;DHT22;52876;49.394;10.892;2023-02-15T13:26:26;9.00;99.90
66094;DHT22;52876;49.394;10.892;2023-02-15T13:28:56;9.10;99.90
66094;DHT22;52876;49.394;10.892;2023-02-15T13:31:27;9.30;99.90
66094;DHT22;52876;49.394;10.892;2023-02-15T13:33:58;9.40;99.90
66094;DHT22;52876;49.394;10.892;2023-02-15T13:36:32;9.90;99.90
66094;DHT22;52876;49.394;10.892;2023-02-15T13:39:07;10.20;99.90
66094;DHT22;52876;49.394;10.892;2023-02-15T13:41:46;11.30;99.90
66094;DHT22;52876;49.394;10.892;2023-02-15T13:44:24;12.30;99.90
66094;DHT22;52876;49.394;10.892;2023-02-15T13:49:40;13.80;99.70
66094;DHT22;52876;49.394;10.892;2023-02-15T13:52:19;13.20;99.90
66094;DHT22;52876;49.394;10.892;2023-02-15T13:54:59;13.00;99.90
66094;DHT22;52876;49.394;10.892;2023-02-15T14:23:25;16.70;76.10
66094;DHT22;52876;49.394;10.892;2023-02-15T14:33:31;16.00;77.60
66094;DHT22;52876;49.394;10.892;2023-02-15T14:38:37;15.70;78.20
66094;DHT22;52876;49.394;10.892;2023-02-15T14:43:44;15.50;79.30
66094;DHT22;52876;49.394;10.892;2023-02-15T14:46:21;15.60;79.60
66094;DHT22;52876;49.394;10.892;2023-02-15T14:48:51;15.90;79.60
66094;DHT22;52876;49.394;10.892;2023-02-15T14:51:56;16.70;76.90
66094;DHT22;52876;49.394;10.892;2023-02-15T14:55:01;13.40;71.80
66094;DHT22;52876;49.394;10.892;2023-02-15T14:57:31;16.90;78.00
66094;DHT22;52876;49.394;10.892;2023-02-15T14:59:58;16.90;74.70
66094;DHT22;52876;49.394;10.892;2023-02-15T15:02:30;17.20;75.10
66094;DHT22;52876;49.394;10.892;2023-02-15T15:05:08;17.30;72.70
66094;DHT22;52876;49.394;10.892;2023-02-15T15:07:40;17.50;71.30
66094;DHT22;52876;49.394;10.892;2023-02-15T15:10:41;17.50;69.70
66094;DHT22;52876;49.394;10.892;2023-02-15T15:13:36;17.50;70.20
66094;DHT22;52876;49.394;10.892;2023-02-15T15:19:10;17.00;70.60
66094;DHT22;52876;49.394;10.892;2023-02-15T15:21:54;16.30;70.60
66094;DHT22;52876;49.394;10.892;2023-02-15T15:24:46;15.70;71.70
66094;DHT22;52876;49.394;10.892;2023-02-15T15:27:39;16.00;72.50
66094;DHT22;52876;49.394;10.892;2023-02-15T15:33:16;15.10;73.10
66094;DHT22;52876;49.394;10.892;2023-02-15T15:36:07;13.20;76.90
66094;DHT22;52876;49.394;10.892;2023-02-15T15:38:43;12.30;84.10
66094;DHT22;52876;49.394;10.892;2023-02-15T15:41:17;12.60;84.20
66094;DHT22;52876;49.394;10.892;2023-02-15T15:44:30;12.70;83.60
66094;DHT22;52876;49.394;10.892;2023-02-15T15:47:20;12.20;85.00
66094;DHT22;52876;49.394;10.892;2023-02-15T15:49:55;12.10;86.50
66094;DHT22;52876;49.394;10.892;2023-02-15T15:54:52;12.20;87.00
66094;DHT22;52876;49.394;10.892;2023-02-15T15:57:22;11.90;87.50
66094;DHT22;52876;49.394;10.892;2023-02-15T15:59:53;12.10;89.00
66094;DHT22;52876;49.394;10.892;2023-02-15T16:07:23;10.80;90.90
66094;DHT22;52876;49.394;10.892;2023-02-15T16:09:57;10.40;91.50
66094;DHT22;52876;49.394;10.892;2023-02-15T16:12:27;9.60;93.30
66094;DHT22;52876;49.394;10.892;2023-02-15T16:14:56;9.20;94.60
66094;DHT22;52876;49.394;10.892;2023-02-15T16:17:23;8.60;95.90
66094;DHT22;52876;49.394;10.892;2023-02-15T16:19:50;8.10;97.80
66094;DHT22;52876;49.394;10.892;2023-02-15T16:22:20;7.60;99.60
66094;DHT22;52876;49.394;10.892;2023-02-15T16:24:59;7.10;99.90
66094;DHT22;52876;49.394;10.892;2023-02-15T16:27:36;6.70;99.90
66094;DHT22;52876;49.394;10.892;2023-02-15T16:30:24;6.30;99.90
66094;DHT22;52876;49.394;10.892;2023-02-15T16:32:53;6.00;99.90
66094;DHT22;52876;49.394;10.892;2023-02-15T16:35:21;5.80;99.90
66094;DHT22;52876;49.394;10.892;2023-02-15T16:40:35;5.60;99.90
66094;DHT22;52876;49.394;10.892;2023-02-15T16:43:06;5.30;99.90
66094;DHT22;52876;49.394;10.892;2023-02-15T16:45:38;5.20;99.90
66094;DHT22;52876;49.394;10.892;2023-02-15T16:48:06;5.10;99.90
66094;DHT22;52876;49.394;10.892;2023-02-15T16:50:34;4.90;99.90
66094;DHT22;52876;49.394;10.892;2023-02-15T16:53:01;4.80;99.90
66094;DHT22;52876;49.394;10.892;2023-02-15T16:55:30;4.70;99.90
66094;DHT22;52876;49.394;10.892;2023-02-15T16:58:02;4.50;99.90
66094;DHT22;52876;49.394;10.892;2023-02-15T17:00:32;4.40;99.90
66094;DHT22;52876;49.394;10.892;2023-02-15T17:03:03;4.40;99.90
66094;DHT22;52876;49.394;10.892;2023-02-15T17:05:32;6.90;99.90
66094;DHT22;52876;49.394;10.892;2023-02-15T17:08:12;2.40;99.90
66094;DHT22;52876;49.394;10.892;2023-02-15T17:10:41;4.10;99.90
66094;DHT22;52876;49.394;10.892;2023-02-15T17:13:10;3.90;99.90
66094;DHT22;52876;49.394;10.892;2023-02-15T17:15:39;3.80;99.90
66094;DHT22;52876;49.394;10.892;2023-02-15T17:18:12;3.70;99.90
66094;DHT22;52876;49.394;10.892;2023-02-15T17:20:41;3.60;99.90
66094;DHT22;52876;49.394;10.892;2023-02-15T17:23:21;3.50;99.90
66094;DHT22;52876;49.394;10.892;2023-02-15T17:28:17;3.20;99.90
66094;DHT22;52876;49.394;10.892;2023-02-15T17:33:21;2.90;99.90
66094;DHT22;52876;49.394;10.892;2023-02-15T17:36:07;2.70;99.90
66094;DHT22;52876;49.394;10.892;2023-02-15T17:48:21;2.20;99.90
66094;DHT22;52876;49.394;10.892;2023-02-15T17:53:15;2.20;99.90
66094;DHT22;52876;49.394;10.892;2023-02-15T17:58:10;2.30;99.90
66094;DHT22;52876;49.394;10.892;2023-02-15T18:00:39;2.20;99.90
66094;DHT22;52876;49.394;10.892;2023-02-15T18:03:08;2.20;99.90
66094;DHT22;52876;49.394;10.892;2023-02-15T18:05:35;2.10;99.90
66094;DHT22;52876;49.394;10.892;2023-02-15T18:20:19;1.90;99.90
66094;DHT22;52876;49.394;10.892;2023-02-15T18:22:48;1.90;99.90
66094;DHT22;52876;49.394;10.892;2023-02-15T18:25:17;1.80;99.90
66094;DHT22;52876;49.394;10.892;2023-02-15T18:27:44;1.90;99.90
66094;DHT22;52876;49.394;10.892;2023-02-15T18:30:13;1.90;99.90
66094;DHT22;52876;49.394;10.892;2023-02-15T18:32:42;1.90;99.90
66094;DHT22;52876;49.394;10.892;2023-02-15T18:35:13;1.90;99.90
66094;DHT22;52876;49.394;10.892;2023-02-15T18:40:14;1.80;99.90
66094;DHT22;52876;49.394;10.892;2023-02-15T18:45:14;1.50;99.90
66094;DHT22;52876;49.394;10.892;2023-02-15T18:52:37;1.40;99.90
66094;DHT22;52876;49.394;10.892;2023-02-15T18:55:04;1.40;99.90
66094;DHT22;52876;49.394;10.892;2023-02-15T18:57:40;1.30;99.90
66094;DHT22;52876;49.394;10.892;2023-02-15T19:00:12;1.20;99.90
66094;DHT22;52876;49.394;10.892;2023-02-15T19:07:35;1.10;99.90
66094;DHT22;52876;49.394;10.892;2023-02-15T19:14:57;1.00;99.90
66094;DHT22;52876;49.394;10.892;2023-02-15T19:17:23;0.90;99.90
66094;DHT22;52876;49.394;10.892;2023-02-15T19:19:50;0.80;99.90
66094;DHT22;52876;49.394;10.892;2023-02-15T19:22:22;0.60;99.90
66094;DHT22;52876;49.394;10.892;2023-02-15T19:24:50;0.50;99.90
66094;DHT22;52876;49.394;10.892;2023-02-15T19:27:20;0.40;99.90
66094;DHT22;52876;49.394;10.892;2023-02-15T19:29:47;0.20;99.90
66094;DHT22;52876;49.394;10.892;2023-02-15T19:32:16;0.20;99.90
66094;DHT22;52876;49.394;10.892;2023-02-15T19:37:21;0.30;99.90
66094;DHT22;52876;49.394;10.892;2023-02-15T19:42:15;0.30;99.90
66094;DHT22;52876;49.394;10.892;2023-02-15T19:47:10;0.30;99.90
66094;DHT22;52876;49.394;10.892;2023-02-15T19:49:38;0.20;99.90
66094;DHT22;52876;49.394;10.892;2023-02-15T19:54:32;0.30;99.90
66094;DHT22;52876;49.394;10.892;2023-02-15T19:57:00;0.40;99.90
66094;DHT22;52876;49.394;10.892;2023-02-15T19:59:27;0.40;99.90
66094;DHT22;52876;49.394;10.892;2023-02-15T20:06:50;0.60;99.90
66094;DHT22;52876;49.394;10.892;2023-02-15T20:09:21;0.60;99.90
66094;DHT22;52876;49.394;10.892;2023-02-15T20:14:13;0.50;99.90
66094;DHT22;52876;49.394;10.892;2023-02-15T20:24:00;0.80;99.90
66094;DHT22;52876;49.394;10.892;2023-02-15T20:31:20;0.80;99.90
66094;DHT22;52876;49.394;10.892;2023-02-15T20:36:15;0.70;99.90
66094;DHT22;52876;49.394;10.892;2023-02-15T20:38:42;0.60;99.90
66094;DHT22;52876;49.394;10.892;2023-02-15T20:41:13;0.70;99.90
66094;DHT22;52876;49.394;10.892;2023-02-15T20:53:26;0.70;99.90
66094;DHT22;52876;49.394;10.892;2023-02-15T20:58:24;0.70;99.90
66094;DHT22;52876;49.394;10.892;2023-02-15T21:00:52;0.60;99.90
66094;DHT22;52876;49.394;10.892;2023-02-15T21:03:21;0.50;99.90
66094;DHT22;52876;49.394;10.892;2023-02-15T21:05:47;0.50;99.90
66094;DHT22;52876;49.394;10.892;2023-02-15T21:08:14;0.40;99.90
66094;DHT22;52876;49.394;10.892;2023-02-15T21:13:18;0.30;99.90
66094;DHT22;52876;49.394;10.892;2023-02-15T21:15:45;0.40;99.90
66094;DHT22;52876;49.394;10.892;2023-02-15T21:18:14;0.40;99.90
66094;DHT22;52876;49.394;10.892;2023-02-15T21:20:43;0.40;99.90
66094;DHT22;52876;49.394;10.892;2023-02-15T21:23:12;0.40;99.90
66094;DHT22;52876;49.394;10.892;2023-02-15T21:28:05;0.30;99.90
66094;DHT22;52876;49.394;10.892;2023-02-15T21:32:58;0.40;99.90
66094;DHT22;52876;49.394;10.892;2023-02-15T21:37:52;2.70;99.90
66094;DHT22;52876;49.394;10.892;2023-02-15T21:40:20;0.50;99.90
66094;DHT22;52876;49.394;10.892;2023-02-15T21:42:48;0.50;99.90
66094;DHT22;52876;49.394;10.892;2023-02-15T21:50:12;0.60;99.90
66094;DHT22;52876;49.394;10.892;2023-02-15T21:55:12;0.40;99.90
66094;DHT22;52876;49.394;10.892;2023-02-15T22:00:11;0.40;99.90
66094;DHT22;52876;49.394;10.892;2023-02-15T22:02:40;0.50;99.90
66094;DHT22;52876;49.394;10.892;2023-02-15T22:05:12;0.50;99.90
66094;DHT22;52876;49.394;10.892;2023-02-15T22:10:06;0.50;99.90
66094;DHT22;52876;49.394;10.892;2023-02-15T22:15:00;0.40;99.90
